createdAt,value
2022-09-15T00:00:14.832Z,30.95
2022-09-15T00:01:46.531Z,26.88
2022-09-15T00:03:18.523Z,31.80
2022-09-15T00:04:50.297Z,32.10
2022-09-15T00:06:21.939Z,30.42
2022-09-15T00:07:53.635Z,33.92
2022-09-15T00:09:25.495Z,28.27
2022-09-15T00:11:08.621Z,27.57
2022-09-15T00:12:40.319Z,29.80
2022-09-15T00:14:12.102Z,31.40
2022-09-15T00:15:43.858Z,31.50
2022-09-15T00:17:15.592Z,32.10
2022-09-15T00:18:47.789Z,32.55
2022-09-15T00:20:20.573Z,36.72
2022-09-15T00:23:23.717Z,31.45
2022-09-15T00:24:55.358Z,30.55
2022-09-15T00:26:28.737Z,35.50
2022-09-15T00:28:00.406Z,33.80
2022-09-15T00:29:32.075Z,29.65
2022-09-15T00:31:08.137Z,31.70
2022-09-15T00:32:39.878Z,28.05
2022-09-15T00:34:12.283Z,29.92
2022-09-15T00:35:45.021Z,29.83
2022-09-15T00:38:48.464Z,31.13
2022-09-15T00:40:20.162Z,31.00
2022-09-15T00:41:51.934Z,32.97
2022-09-15T00:43:41.946Z,27.27
2022-09-15T00:45:16.097Z,33.60
2022-09-15T00:47:09.283Z,33.05
2022-09-15T00:50:14.960Z,30.27
2022-09-15T00:51:46.602Z,34.67
2022-09-15T00:53:19.864Z,30.33
2022-09-15T00:54:54.982Z,36.15
2022-09-15T00:56:27.320Z,32.22
2022-09-15T00:58:04.086Z,38.40
2022-09-15T00:59:37.141Z,37.08
2022-09-15T01:01:09.245Z,33.90
2022-09-15T01:02:42.480Z,36.20
2022-09-15T01:04:14.875Z,33.55
2022-09-15T01:05:48.646Z,32.63
2022-09-15T01:07:24.511Z,34.03
2022-09-15T01:09:04.845Z,33.03
2022-09-15T01:10:38.511Z,31.60
2022-09-15T01:12:10.147Z,38.08
2022-09-15T01:13:41.863Z,32.20
2022-09-15T01:15:13.787Z,34.33
2022-09-15T01:16:51.571Z,32.25
2022-09-15T01:18:31.426Z,32.60
2022-09-15T01:20:22.898Z,36.58
2022-09-15T01:22:08.510Z,31.70
2022-09-15T01:23:43.266Z,33.90
2022-09-15T01:25:35.361Z,33.25
2022-09-15T01:27:37.666Z,29.75
2022-09-15T01:29:21.815Z,34.10
2022-09-15T01:31:00.273Z,31.67
2022-09-15T01:32:53.512Z,33.38
2022-09-15T01:34:26.729Z,37.47
2022-09-15T01:36:17.200Z,29.40
2022-09-15T01:38:06.341Z,33.85
2022-09-15T01:39:40.155Z,31.92
2022-09-15T01:41:14.920Z,32.80
2022-09-15T01:42:49.569Z,29.80
2022-09-15T01:44:32.957Z,30.15
2022-09-15T01:46:05.505Z,33.20
2022-09-15T01:47:37.597Z,40.33
2022-09-15T01:49:10.729Z,27.98
2022-09-15T01:50:44.511Z,34.92
2022-09-15T01:52:18.036Z,30.15
2022-09-15T01:53:50.712Z,31.23
2022-09-15T01:55:30.856Z,31.92
2022-09-15T01:57:03.152Z,31.17
2022-09-15T01:58:35.351Z,33.80
2022-09-15T02:00:07.492Z,39.10
2022-09-15T02:01:44.821Z,36.85
2022-09-15T02:03:21.102Z,38.65
2022-09-15T02:04:54.500Z,31.00
2022-09-15T02:06:37.492Z,41.10
2022-09-15T02:08:09.310Z,32.13
2022-09-15T02:09:46.945Z,35.17
2022-09-15T02:11:19.873Z,37.13
2022-09-15T02:12:54.369Z,36.17
2022-09-15T02:14:36.383Z,30.83
2022-09-15T02:16:15.431Z,31.60
2022-09-15T02:17:50.617Z,34.65
2022-09-15T02:19:31.360Z,38.65
2022-09-15T02:21:10.847Z,39.55
2022-09-15T02:22:45.806Z,33.25
2022-09-15T02:24:19.806Z,33.83
2022-09-15T02:25:53.614Z,31.02
2022-09-15T02:27:27.626Z,29.08
2022-09-15T02:29:00.570Z,32.38
2022-09-15T02:30:33.006Z,30.38
2022-09-15T02:32:07.570Z,33.30
2022-09-15T02:33:41.318Z,29.58
2022-09-15T02:35:13.736Z,35.85
2022-09-15T02:36:45.806Z,32.45
2022-09-15T02:38:17.478Z,35.05
2022-09-15T02:39:52.251Z,37.13
2022-09-15T02:41:24.297Z,36.05
2022-09-15T02:42:57.292Z,33.25
2022-09-15T02:46:02.676Z,35.65
2022-09-15T02:47:34.406Z,36.45
2022-09-15T02:49:06.099Z,39.55
2022-09-15T02:50:38.227Z,36.40
2022-09-15T02:52:09.927Z,33.38
2022-09-15T02:53:43.090Z,29.33
2022-09-15T02:55:15.984Z,29.48
2022-09-15T02:56:47.728Z,30.17
2022-09-15T02:58:19.428Z,39.42
2022-09-15T03:00:09.981Z,27.70
2022-09-15T03:01:42.020Z,32.78
2022-09-15T03:03:13.743Z,33.88
2022-09-15T03:04:45.541Z,27.58
2022-09-15T03:06:17.248Z,28.58
2022-09-15T03:07:49.226Z,28.20
2022-09-15T03:09:20.932Z,30.83
2022-09-15T03:10:59.068Z,33.47
2022-09-15T03:12:30.701Z,35.22
2022-09-15T03:14:03.704Z,30.88
2022-09-15T03:15:35.444Z,29.25
2022-09-15T03:17:07.102Z,33.03
2022-09-15T03:18:39.168Z,32.67
2022-09-15T03:20:12.169Z,29.10
2022-09-15T03:21:43.848Z,31.48
2022-09-15T03:23:15.554Z,28.00
2022-09-15T03:24:48.188Z,27.38
2022-09-15T03:26:19.870Z,28.13
2022-09-15T03:27:51.536Z,36.90
2022-09-15T03:29:23.317Z,28.67
2022-09-15T03:30:55.326Z,31.20
2022-09-15T03:32:27.094Z,33.13
2022-09-15T03:33:58.868Z,29.35
2022-09-15T03:35:30.583Z,30.60
2022-09-15T03:37:03.769Z,27.92
2022-09-15T03:38:35.487Z,29.70
2022-09-15T03:40:07.476Z,30.88
2022-09-15T03:41:39.226Z,26.35
2022-09-15T03:43:14.329Z,33.00
2022-09-15T03:44:49.811Z,32.83
2022-09-15T03:46:21.521Z,30.30
2022-09-15T03:47:53.299Z,29.52
2022-09-15T03:49:25.359Z,35.58
2022-09-15T03:50:57.049Z,27.70
2022-09-15T03:52:31.523Z,30.67
2022-09-15T03:54:03.343Z,32.13
2022-09-15T03:55:35.243Z,29.63
2022-09-15T03:57:06.971Z,32.03
2022-09-15T03:58:38.623Z,27.27
2022-09-15T04:00:10.602Z,30.25
2022-09-15T04:01:42.666Z,32.50
2022-09-15T04:03:16.953Z,26.50
2022-09-15T04:04:49.587Z,29.70
2022-09-15T04:06:21.880Z,32.35
2022-09-15T04:07:53.548Z,31.63
2022-09-15T04:09:25.870Z,28.15
2022-09-15T04:10:57.550Z,28.27
2022-09-15T04:12:30.171Z,34.92
2022-09-15T04:14:01.873Z,30.60
2022-09-15T04:15:33.596Z,33.88
2022-09-15T04:17:05.286Z,31.67
2022-09-15T04:18:37.249Z,30.00
2022-09-15T04:20:09.347Z,31.65
2022-09-15T04:21:41.071Z,34.28
2022-09-15T04:23:12.763Z,28.92
2022-09-15T04:24:47.148Z,29.55
2022-09-15T04:26:23.048Z,35.28
2022-09-15T04:27:55.127Z,27.15
2022-09-15T04:29:26.855Z,30.20
2022-09-15T04:31:06.067Z,34.78
2022-09-15T04:32:37.817Z,34.22
2022-09-15T04:34:09.550Z,31.58
2022-09-15T04:35:41.273Z,31.60
2022-09-15T04:37:19.619Z,33.80
2022-09-15T04:38:51.955Z,29.45
2022-09-15T04:40:23.859Z,31.25
2022-09-15T04:41:55.642Z,35.58
2022-09-15T04:43:27.373Z,36.58
2022-09-15T04:44:59.378Z,41.00
2022-09-15T04:46:31.190Z,37.60
2022-09-15T04:48:03.888Z,35.13
2022-09-15T04:49:35.567Z,32.75
2022-09-15T04:51:08.503Z,42.05
2022-09-15T04:52:40.124Z,35.78
2022-09-15T04:54:11.749Z,34.47
2022-09-15T04:55:43.470Z,39.50
2022-09-15T04:57:15.997Z,38.72
2022-09-15T04:58:52.285Z,31.20
2022-09-15T05:00:24.100Z,39.53
2022-09-15T05:01:56.328Z,37.05
2022-09-15T05:03:29.255Z,35.67
2022-09-15T05:05:02.327Z,38.13
2022-09-15T05:06:35.098Z,31.83
2022-09-15T05:09:38.756Z,36.55
2022-09-15T05:11:11.772Z,37.20
2022-09-15T05:12:48.931Z,39.13
2022-09-15T05:14:20.763Z,44.15
2022-09-15T05:15:52.450Z,36.08
2022-09-15T05:17:26.789Z,36.85
2022-09-15T05:19:00.173Z,35.95
2022-09-15T05:20:31.941Z,39.33
2022-09-15T05:22:03.688Z,38.13
2022-09-15T05:23:35.868Z,35.08
2022-09-15T05:25:07.830Z,37.70
2022-09-15T05:26:39.760Z,44.90
2022-09-15T05:28:11.450Z,35.60
2022-09-15T05:29:43.266Z,39.63
2022-09-15T05:31:26.306Z,32.90
2022-09-15T05:32:59.889Z,36.80
2022-09-15T05:38:33.755Z,34.58
2022-09-15T05:40:08.656Z,36.80
2022-09-15T05:41:41.348Z,36.50
2022-09-15T05:43:13.088Z,39.28
2022-09-15T05:44:44.872Z,36.38
2022-09-15T05:46:17.470Z,38.22
2022-09-15T05:47:52.003Z,34.83
2022-09-15T05:49:25.682Z,35.65
2022-09-15T05:50:57.989Z,30.83
2022-09-15T05:52:29.836Z,30.40
2022-09-15T05:54:01.506Z,34.90
2022-09-15T05:55:37.099Z,35.90
2022-09-15T05:57:08.686Z,34.83
2022-09-15T05:58:41.458Z,32.33
2022-09-15T06:01:47.529Z,34.45
2022-09-15T06:03:19.734Z,33.45
2022-09-15T06:04:51.822Z,35.25
2022-09-15T06:06:28.165Z,37.08
2022-09-15T06:08:00.735Z,32.92
2022-09-15T06:09:32.517Z,35.58
2022-09-15T06:11:08.782Z,38.53
2022-09-15T06:12:40.436Z,32.92
2022-09-15T06:14:13.454Z,37.17
2022-09-15T06:15:45.190Z,39.58
2022-09-15T06:17:17.532Z,31.35
2022-09-15T06:18:50.415Z,33.85
2022-09-15T06:21:54.288Z,36.90
2022-09-15T06:23:26.061Z,37.78
2022-09-15T06:24:57.804Z,36.78
2022-09-15T06:26:29.585Z,36.20
2022-09-15T06:28:01.414Z,39.72
2022-09-15T06:29:36.719Z,38.72
2022-09-15T06:31:12.398Z,42.55
2022-09-15T06:32:47.923Z,36.60
2022-09-15T06:34:20.091Z,34.35
2022-09-15T06:35:51.747Z,38.40
2022-09-15T06:37:23.443Z,39.08
2022-09-15T06:38:55.640Z,34.63
2022-09-15T06:40:27.696Z,40.53
2022-09-15T06:42:02.842Z,41.03
2022-09-15T06:43:36.260Z,36.95
2022-09-15T06:45:08.209Z,35.42
2022-09-15T06:46:39.879Z,40.67
2022-09-15T06:48:23.854Z,38.08
2022-09-15T06:49:56.648Z,36.20
2022-09-15T06:51:31.489Z,35.72
2022-09-15T06:53:03.180Z,35.15
2022-09-15T06:54:34.892Z,38.92
2022-09-15T06:56:10.590Z,39.63
2022-09-15T06:57:42.478Z,35.00
2022-09-15T06:59:14.860Z,35.57
2022-09-15T07:00:46.926Z,41.58
2022-09-15T07:02:18.779Z,35.45
2022-09-15T07:03:50.673Z,34.08
2022-09-15T07:05:22.348Z,34.58
2022-09-15T07:06:53.981Z,34.80
2022-09-15T07:08:25.634Z,33.78
2022-09-15T07:09:57.324Z,36.22
2022-09-15T07:11:29.291Z,35.75
2022-09-15T07:13:01.428Z,36.50
2022-09-15T07:14:33.108Z,39.60
2022-09-15T07:16:05.883Z,41.75
2022-09-15T07:19:09.489Z,31.88
2022-09-15T07:20:42.015Z,33.07
2022-09-15T07:22:13.754Z,32.33
2022-09-15T07:23:46.008Z,29.80
2022-09-15T07:25:17.741Z,31.35
2022-09-15T07:26:49.402Z,32.55
2022-09-15T07:28:21.211Z,32.40
2022-09-15T07:29:55.872Z,34.63
2022-09-15T07:31:31.153Z,28.20
2022-09-15T07:33:04.702Z,31.65
2022-09-15T07:34:36.422Z,28.73
2022-09-15T07:36:08.899Z,31.42
2022-09-15T07:37:40.560Z,31.60
2022-09-15T07:39:12.242Z,34.35
2022-09-15T07:40:46.051Z,28.08
2022-09-15T07:42:17.865Z,28.48
2022-09-15T07:43:50.707Z,27.50
2022-09-15T07:46:54.106Z,28.38
2022-09-15T07:48:26.534Z,29.33
2022-09-15T07:49:58.484Z,28.13
2022-09-15T07:51:30.377Z,28.88
2022-09-15T07:53:02.229Z,25.07
2022-09-15T07:54:33.877Z,28.95
2022-09-15T07:56:05.744Z,23.40
2022-09-15T07:57:40.323Z,30.00
2022-09-15T07:59:12.027Z,27.52
2022-09-15T08:00:43.658Z,29.70
2022-09-15T08:02:17.426Z,24.85
2022-09-15T08:03:50.264Z,22.98
2022-09-15T08:06:53.743Z,28.05
2022-09-15T08:08:25.674Z,22.83
2022-09-15T08:09:57.324Z,20.83
2022-09-15T08:11:29.402Z,25.85
2022-09-15T08:13:01.124Z,24.50
2022-09-15T08:14:33.042Z,22.02
2022-09-15T08:16:05.614Z,19.60
2022-09-15T08:17:37.352Z,22.58
2022-09-15T08:19:08.994Z,17.10
2022-09-15T08:20:43.998Z,19.98
2022-09-15T08:22:15.736Z,17.98
2022-09-15T08:23:51.063Z,17.83
2022-09-15T08:25:29.354Z,16.20
2022-09-15T08:27:01.057Z,22.30
2022-09-15T08:28:32.818Z,17.30
2022-09-15T08:30:05.324Z,21.15
2022-09-15T08:31:39.803Z,20.33
2022-09-15T08:33:11.838Z,16.30
2022-09-15T08:34:43.461Z,17.90
2022-09-15T08:36:15.419Z,18.20
2022-09-15T08:37:47.307Z,14.52
2022-09-15T08:39:19.114Z,16.60
2022-09-15T08:40:56.119Z,15.32
2022-09-15T08:42:29.297Z,14.82
2022-09-15T08:44:04.052Z,15.73
2022-09-15T08:45:44.433Z,14.75
2022-09-15T08:47:33.874Z,18.40
2022-09-15T08:49:09.883Z,14.65
2022-09-15T08:50:50.371Z,14.57
2022-09-15T08:52:40.827Z,14.48
2022-09-15T08:54:23.515Z,13.23
2022-09-15T08:55:56.417Z,12.60
2022-09-15T08:58:59.878Z,14.70
2022-09-15T09:00:32.235Z,13.55
2022-09-15T09:02:23.450Z,14.95
2022-09-15T09:04:01.222Z,12.77
2022-09-15T09:05:40.895Z,12.35
2022-09-15T09:07:12.513Z,12.40
2022-09-15T09:08:50.349Z,14.10
2022-09-15T09:10:32.556Z,12.30
2022-09-15T09:12:04.219Z,12.07
2022-09-15T09:13:59.969Z,10.63
2022-09-15T09:15:43.970Z,12.80
2022-09-15T09:17:25.250Z,9.43
2022-09-15T09:19:01.972Z,14.57
2022-09-15T09:20:48.902Z,14.68
2022-09-15T09:22:25.969Z,9.70
2022-09-15T09:24:03.347Z,9.40
2022-09-15T09:25:36.255Z,13.15
2022-09-15T09:27:15.207Z,11.75
2022-09-15T09:28:56.186Z,7.85
2022-09-15T09:30:29.023Z,9.55
2022-09-15T09:32:02.197Z,10.05
2022-09-15T09:33:47.532Z,10.95
2022-09-15T09:35:34.589Z,7.63
2022-09-15T09:37:10.806Z,10.93
2022-09-15T09:38:43.983Z,17.17
2022-09-15T09:40:16.069Z,9.77
2022-09-15T09:41:48.529Z,12.27
2022-09-15T09:43:20.413Z,7.65
2022-09-15T09:44:52.489Z,5.63
2022-09-15T09:46:24.114Z,8.07
2022-09-15T09:48:01.787Z,10.18
2022-09-15T09:49:34.797Z,7.13
2022-09-15T09:51:29.043Z,8.07
2022-09-15T09:53:00.937Z,8.57
2022-09-15T09:54:34.004Z,5.25
2022-09-15T09:56:11.882Z,8.57
2022-09-15T09:57:43.799Z,6.15
2022-09-15T09:59:31.854Z,8.23
2022-09-15T10:01:11.936Z,9.73
2022-09-15T10:02:47.592Z,5.50
2022-09-15T10:04:19.836Z,7.03
2022-09-15T10:06:03.813Z,4.25
2022-09-15T10:07:40.704Z,7.13
2022-09-15T10:09:16.617Z,5.65
2022-09-15T10:10:55.987Z,6.75
2022-09-15T10:12:38.509Z,5.18
2022-09-15T10:14:33.555Z,8.77
2022-09-15T10:16:05.883Z,6.45
2022-09-15T10:17:41.665Z,7.43
2022-09-15T10:19:14.334Z,7.15
2022-09-15T10:20:50.467Z,5.10
2022-09-15T10:22:23.650Z,8.07
2022-09-15T10:23:55.296Z,7.85
2022-09-15T10:25:39.574Z,6.05
2022-09-15T10:27:30.751Z,7.50
2022-09-15T10:29:11.736Z,6.80
2022-09-15T10:30:55.745Z,8.00
2022-09-15T10:32:31.756Z,7.05
2022-09-15T10:34:22.308Z,8.32
2022-09-15T10:35:54.764Z,8.80
2022-09-15T10:37:35.014Z,9.07
2022-09-15T10:39:25.306Z,8.80
2022-09-15T10:41:00.007Z,5.80
2022-09-15T10:42:50.494Z,5.97
2022-09-15T10:44:27.941Z,4.97
2022-09-15T10:46:02.241Z,5.18
2022-09-15T10:47:33.990Z,9.95
2022-09-15T10:49:06.177Z,10.65
2022-09-15T10:50:56.154Z,8.00
2022-09-15T10:52:30.890Z,7.43
2022-09-15T10:54:14.485Z,7.05
2022-09-15T10:55:59.977Z,4.15
2022-09-15T10:57:37.411Z,7.03
2022-09-15T10:59:43.367Z,5.60
2022-09-15T11:01:21.227Z,10.38
2022-09-15T11:03:00.340Z,7.18
2022-09-15T11:04:41.635Z,4.68
2022-09-15T12:46:53.120Z,2.50
2022-09-15T12:48:29.290Z,3.63
2022-09-15T12:50:03.441Z,7.32
2022-09-15T12:51:35.077Z,2.88
2022-09-15T12:53:17.465Z,2.33
2022-09-15T12:55:09.520Z,4.60
2022-09-15T12:56:49.698Z,3.35
2022-09-15T12:58:27.360Z,2.35
2022-09-15T13:00:16.481Z,1.98
2022-09-15T13:01:49.595Z,1.50
2022-09-15T13:03:33.722Z,2.45
2022-09-15T13:05:05.554Z,1.70
2022-09-15T13:06:38.605Z,1.63
2022-09-15T13:08:11.525Z,2.38
2022-09-15T13:09:45.126Z,1.25
2022-09-15T13:11:16.816Z,3.15
2022-09-15T13:12:52.440Z,1.85
2022-09-15T13:14:45.181Z,1.25
2022-09-15T13:16:35.483Z,3.63
2022-09-15T13:18:07.470Z,5.38
2022-09-15T13:19:46.744Z,3.10
2022-09-15T13:21:21.373Z,2.30
2022-09-15T13:22:54.866Z,5.07
2022-09-15T13:24:44.990Z,3.08
2022-09-15T13:26:19.391Z,4.35
2022-09-15T13:27:58.636Z,6.18
2022-09-15T13:29:33.042Z,4.05
2022-09-15T13:31:18.318Z,5.50
2022-09-15T13:33:14.058Z,8.68
2022-09-15T13:35:09.736Z,3.38
2022-09-15T13:38:54.213Z,6.68
2022-09-15T13:40:38.654Z,4.22
2022-09-15T13:42:13.629Z,5.75
2022-09-15T13:43:53.588Z,4.50
2022-09-15T13:45:31.162Z,2.30
2022-09-15T13:47:12.352Z,3.85
2022-09-15T13:48:47.104Z,10.38
2022-09-15T13:50:25.968Z,4.50
2022-09-15T13:52:00.932Z,5.03
2022-09-15T13:53:42.939Z,7.20
2022-09-15T13:55:14.726Z,6.95
2022-09-15T13:56:47.549Z,4.18
2022-09-15T14:00:20.878Z,5.60
2022-09-15T14:01:54.811Z,8.93
2022-09-15T14:03:45.608Z,8.38
2022-09-15T14:05:17.968Z,3.22
2022-09-15T14:06:51.254Z,4.60
2022-09-15T14:08:26.487Z,5.78
2022-09-15T14:09:58.201Z,6.47
2022-09-15T14:11:33.704Z,4.82
2022-09-15T14:13:05.317Z,7.65
2022-09-15T14:14:45.257Z,4.10
2022-09-15T14:16:26.230Z,5.10
2022-09-15T14:17:57.949Z,7.97
2022-09-15T14:19:36.577Z,4.53
2022-09-15T14:21:16.624Z,6.15
2022-09-15T14:22:49.790Z,1.90
2022-09-15T14:24:22.283Z,4.65
2022-09-15T14:25:53.958Z,5.55
2022-09-15T14:27:27.622Z,8.25
2022-09-15T14:29:01.018Z,4.78
2022-09-15T14:30:32.760Z,4.45
2022-09-15T14:32:04.563Z,3.00
2022-09-15T14:33:38.304Z,3.08
2022-09-15T14:35:17.342Z,5.72
2022-09-15T14:36:57.359Z,4.15
2022-09-15T14:38:29.147Z,3.47
2022-09-15T14:40:01.825Z,8.17
2022-09-15T14:43:27.721Z,9.15
2022-09-15T14:47:11.084Z,9.75
2022-09-15T14:48:42.791Z,6.55
2022-09-15T14:50:16.533Z,8.07
2022-09-15T14:51:51.642Z,9.35
2022-09-15T14:53:24.824Z,7.78
2022-09-15T14:54:59.893Z,8.38
2022-09-15T14:56:33.373Z,5.78
2022-09-15T14:58:13.505Z,5.50
2022-09-15T14:59:48.901Z,6.55
2022-09-15T15:01:26.109Z,5.20
2022-09-15T15:03:01.109Z,11.50
2022-09-15T15:04:40.805Z,7.90
2022-09-15T15:06:34.585Z,9.73
2022-09-15T15:08:08.105Z,3.95
2022-09-15T15:09:56.561Z,9.93
2022-09-15T15:11:29.133Z,4.95
2022-09-15T15:13:15.316Z,9.35
2022-09-15T15:14:47.203Z,4.68
2022-09-15T15:16:23.732Z,4.05
2022-09-15T15:22:13.867Z,3.75
2022-09-15T15:23:46.835Z,2.78
2022-09-15T15:25:21.632Z,1.70
2022-09-15T15:26:53.666Z,2.72
2022-09-15T15:28:29.170Z,3.55
2022-09-15T15:30:19.853Z,5.53
2022-09-15T15:31:52.911Z,4.95
2022-09-15T15:33:26.947Z,1.83
2022-09-15T15:35:04.869Z,4.53
2022-09-15T15:36:36.700Z,3.70
2022-09-15T15:38:11.020Z,1.57
2022-09-15T15:39:48.985Z,5.85
2022-09-15T15:41:22.570Z,1.45
2022-09-15T15:42:59.257Z,4.60
2022-09-15T15:44:32.346Z,4.88
2022-09-15T15:46:05.311Z,3.55
2022-09-15T15:47:37.271Z,2.60
2022-09-15T15:49:13.326Z,3.83
2022-09-15T15:50:45.113Z,7.65
2022-09-15T15:52:16.783Z,4.93
2022-09-15T15:53:48.656Z,3.70
2022-09-15T15:55:37.357Z,4.35
2022-09-15T15:57:20.838Z,4.25
2022-09-15T15:58:53.880Z,4.20
2022-09-15T16:00:29.025Z,3.17
2022-09-15T16:02:00.808Z,6.25
2022-09-15T16:03:32.595Z,4.37
2022-09-15T16:05:04.411Z,6.70
2022-09-15T16:06:36.203Z,2.72
2022-09-15T16:08:12.230Z,4.70
2022-09-15T16:09:44.340Z,4.15
2022-09-15T16:11:16.871Z,8.90
2022-09-15T16:12:48.670Z,6.47
2022-09-15T16:14:20.422Z,4.97
2022-09-15T16:15:57.993Z,2.13
2022-09-15T16:17:30.546Z,3.35
2022-09-15T16:19:02.252Z,10.65
2022-09-15T16:20:40.843Z,4.25
2022-09-15T16:22:23.143Z,4.00
2022-09-15T16:23:54.848Z,3.85
2022-09-15T16:25:33.121Z,4.47
2022-09-15T16:27:08.135Z,4.00
2022-09-15T16:28:39.972Z,4.90
2022-09-15T16:30:12.184Z,3.83
2022-09-15T16:31:44.081Z,5.88
2022-09-15T16:33:16.920Z,5.00
2022-09-15T16:36:23.225Z,5.07
2022-09-15T16:37:54.914Z,4.82
2022-09-15T16:39:26.652Z,3.90
2022-09-15T16:40:58.377Z,3.55
2022-09-15T16:42:30.088Z,6.55
2022-09-15T16:44:02.743Z,5.50
2022-09-15T16:45:38.232Z,5.20
2022-09-15T16:47:12.536Z,4.25
2022-09-15T16:48:44.550Z,3.47
2022-09-15T16:50:16.328Z,2.60
2022-09-15T16:51:47.992Z,5.32
2022-09-15T16:53:21.527Z,2.50
2022-09-15T16:54:53.298Z,3.08
2022-09-15T16:56:25.337Z,4.03
2022-09-15T16:57:57.254Z,3.60
2022-09-15T16:59:28.957Z,3.27
2022-09-15T17:01:00.812Z,3.00
2022-09-15T17:02:32.529Z,3.90
2022-09-15T17:04:09.218Z,3.47
2022-09-15T17:05:48.312Z,4.13
2022-09-15T17:07:20.274Z,5.22
2022-09-15T17:08:52.101Z,3.38
2022-09-15T17:10:24.559Z,4.03
2022-09-15T17:11:56.484Z,3.97
2022-09-15T17:13:30.516Z,2.28
2022-09-15T17:15:03.954Z,6.35
2022-09-15T17:16:35.741Z,6.40
2022-09-15T17:18:08.169Z,3.88
2022-09-15T17:19:41.022Z,6.13
2022-09-15T17:22:44.379Z,4.30
2022-09-15T17:24:17.521Z,2.65
2022-09-15T17:25:52.926Z,4.13
2022-09-15T17:27:24.611Z,3.97
2022-09-15T17:28:57.773Z,3.08
2022-09-15T17:30:30.833Z,2.70
2022-09-15T17:32:02.514Z,7.80
2022-09-15T17:33:34.320Z,2.17
2022-09-15T17:35:13.452Z,7.00
2022-09-15T17:36:45.630Z,4.93
2022-09-15T17:38:20.393Z,6.25
2022-09-15T17:39:58.671Z,3.58
2022-09-15T17:41:31.200Z,6.40
2022-09-15T17:43:03.406Z,3.58
2022-09-15T17:44:37.590Z,4.38
2022-09-15T17:46:09.637Z,2.90
2022-09-15T17:47:48.719Z,4.97
2022-09-15T17:49:20.725Z,1.95
2022-09-15T17:50:52.685Z,4.90
2022-09-15T17:52:24.865Z,3.45
2022-09-15T17:53:56.591Z,3.80
2022-09-15T17:55:32.772Z,5.07
2022-09-15T17:57:05.586Z,6.18
2022-09-15T18:00:10.148Z,5.28
2022-09-15T18:01:41.857Z,4.18
2022-09-15T18:03:33.505Z,2.85
2022-09-15T18:05:05.388Z,4.00
2022-09-15T18:06:37.129Z,7.50
2022-09-15T18:08:09.296Z,7.47
2022-09-15T18:09:43.324Z,3.72
2022-09-15T18:11:15.572Z,4.43
2022-09-15T18:12:49.200Z,3.92
2022-09-15T18:14:22.801Z,5.07
2022-09-15T18:15:54.657Z,4.30
2022-09-15T18:17:26.652Z,5.50
2022-09-15T18:18:58.311Z,4.93
2022-09-15T18:20:30.957Z,7.30
2022-09-15T18:22:03.776Z,3.58
2022-09-15T18:25:28.390Z,3.90
2022-09-15T18:27:00.056Z,5.78
2022-09-15T18:28:31.761Z,4.22
2022-09-15T18:30:03.958Z,1.75
2022-09-15T18:31:35.669Z,4.07
2022-09-15T18:33:16.533Z,5.82
2022-09-15T18:34:49.161Z,2.38
2022-09-15T18:36:20.859Z,6.90
2022-09-15T18:37:59.062Z,6.40
2022-09-15T18:39:30.729Z,5.57
2022-09-15T18:41:03.930Z,9.60
2022-09-15T18:42:38.910Z,5.43
2022-09-15T18:44:10.674Z,2.97
2022-09-15T18:45:45.495Z,3.70
2022-09-15T18:47:17.193Z,5.63
2022-09-15T18:48:48.980Z,6.35
2022-09-15T18:50:22.283Z,3.72
2022-09-15T18:51:54.172Z,3.65
2022-09-15T18:53:26.256Z,6.60
2022-09-15T18:54:59.752Z,8.05
2022-09-15T18:56:31.601Z,4.00
2022-09-15T18:58:03.361Z,7.30
2022-09-15T18:59:35.270Z,8.32
2022-09-15T19:01:07.251Z,4.47
2022-09-15T19:02:40.396Z,7.68
2022-09-15T19:04:12.182Z,6.68
2022-09-15T19:05:50.710Z,6.28
2022-09-15T19:07:27.679Z,5.00
2022-09-15T19:09:00.794Z,7.70
2022-09-15T19:10:32.729Z,3.85
2022-09-15T19:12:04.768Z,3.10
2022-09-15T19:13:36.625Z,1.92
2022-09-15T19:15:10.914Z,3.20
2022-09-15T19:16:57.125Z,5.40
2022-09-15T19:18:30.934Z,3.70
2022-09-15T19:20:02.931Z,4.43
2022-09-15T19:21:34.671Z,4.43
2022-09-15T19:23:06.550Z,6.90
2022-09-15T19:24:38.385Z,4.33
2022-09-15T19:26:15.922Z,4.72
2022-09-15T19:27:48.050Z,6.32
2022-09-15T19:29:19.850Z,5.97
2022-09-15T19:30:51.625Z,5.60
2022-09-15T19:32:23.576Z,7.97
2022-09-15T19:33:55.324Z,5.22
2022-09-15T19:35:27.085Z,6.32
2022-09-15T19:36:58.827Z,4.80
2022-09-15T19:38:30.690Z,3.25
2022-09-15T19:40:04.090Z,2.85
2022-09-15T19:41:35.896Z,6.22
2022-09-15T19:43:07.664Z,7.18
2022-09-15T19:44:40.751Z,8.93
2022-09-15T19:46:17.551Z,6.85
2022-09-15T19:47:49.390Z,4.75
2022-09-15T19:49:21.356Z,3.17
2022-09-15T19:50:53.221Z,5.50
2022-09-15T19:52:24.888Z,3.35
2022-09-15T19:53:57.637Z,4.72
2022-09-15T19:55:29.892Z,5.75
2022-09-15T19:57:02.085Z,8.25
2022-09-15T19:58:33.809Z,4.18
2022-09-15T20:00:06.376Z,3.90
2022-09-15T20:01:38.179Z,3.38
2022-09-15T20:03:09.975Z,5.85
2022-09-15T20:04:41.847Z,4.07
2022-09-15T20:06:13.709Z,7.50
2022-09-15T20:07:48.151Z,5.97
2022-09-15T20:09:20.059Z,3.00
2022-09-15T20:10:51.941Z,4.20
2022-09-15T20:12:24.279Z,4.63
2022-09-15T20:13:56.046Z,4.22
2022-09-15T20:15:28.145Z,8.38
2022-09-15T20:17:01.261Z,5.30
2022-09-15T20:18:33.848Z,4.35
2022-09-15T20:20:05.977Z,3.85
2022-09-15T20:21:49.732Z,3.35
2022-09-15T20:23:22.854Z,3.22
2022-09-15T20:24:56.239Z,5.10
2022-09-15T20:26:28.332Z,5.20
2022-09-15T20:28:00.018Z,4.93
2022-09-15T20:29:31.757Z,5.00
2022-09-15T20:31:05.759Z,5.95
2022-09-15T20:32:37.578Z,5.78
2022-09-15T20:34:09.467Z,4.03
2022-09-15T20:35:41.199Z,9.25
2022-09-15T20:37:12.979Z,7.18
2022-09-15T20:38:45.942Z,5.40
2022-09-15T20:40:17.831Z,6.97
2022-09-15T20:41:49.679Z,5.80
2022-09-15T20:43:21.910Z,3.92
2022-09-15T20:44:53.647Z,4.57
2022-09-15T20:46:25.534Z,4.05
2022-09-15T20:47:57.357Z,7.63
2022-09-15T20:49:29.177Z,10.10
2022-09-15T20:51:05.057Z,9.25
2022-09-15T20:52:38.560Z,4.80
2022-09-15T20:54:12.722Z,4.55
2022-09-15T20:58:37.564Z,3.70
2022-09-15T21:00:10.249Z,4.50
2022-09-15T21:01:42.141Z,4.45
2022-09-15T21:03:14.701Z,3.78
2022-09-15T21:04:46.963Z,7.28
2022-09-15T21:06:19.658Z,8.15
2022-09-15T21:07:57.482Z,11.00
2022-09-15T21:09:29.158Z,7.38
2022-09-15T21:11:01.244Z,4.55
2022-09-15T21:12:33.483Z,8.68
2022-09-15T21:14:05.688Z,8.02
2022-09-15T21:15:37.476Z,6.60
2022-09-15T21:17:09.454Z,5.78
2022-09-15T21:18:42.151Z,9.53
2022-09-15T21:20:13.879Z,7.90
2022-09-15T21:21:45.786Z,4.05
2022-09-15T21:23:18.382Z,2.47
2022-09-15T21:24:50.266Z,14.68
2022-09-15T21:26:23.760Z,6.38
2022-09-15T21:27:55.597Z,9.88
2022-09-15T21:29:27.986Z,5.82
2022-09-15T21:31:07.502Z,6.13
2022-09-15T21:32:40.791Z,6.28
2022-09-15T21:34:12.479Z,8.85
2022-09-15T21:35:44.205Z,6.15
2022-09-15T21:37:15.941Z,5.57
2022-09-15T21:38:48.231Z,6.70
2022-09-15T21:40:20.017Z,9.75
2022-09-15T21:41:51.789Z,8.65
2022-09-15T21:43:23.527Z,5.10
2022-09-15T21:44:55.752Z,8.52
2022-09-15T21:46:28.771Z,8.13
2022-09-15T21:48:00.464Z,4.97
2022-09-15T21:49:32.433Z,6.82
2022-09-15T21:51:04.987Z,5.95
2022-09-15T21:52:37.243Z,8.93
2022-09-15T21:54:08.959Z,4.07
2022-09-15T21:55:40.628Z,4.25
2022-09-15T21:57:12.445Z,8.00
2022-09-15T21:58:44.596Z,7.03
2022-09-15T22:00:16.686Z,8.43
2022-09-15T22:01:49.154Z,6.03
2022-09-15T22:03:20.983Z,5.40
2022-09-15T22:04:52.739Z,4.47
2022-09-15T22:06:31.695Z,3.20
2022-09-15T22:08:05.105Z,5.57
2022-09-15T22:09:38.925Z,4.38
2022-09-15T22:11:11.053Z,5.95
2022-09-15T22:12:42.777Z,7.45
2022-09-15T22:14:15.044Z,6.03
2022-09-15T22:15:46.853Z,4.25
2022-09-15T22:17:18.656Z,10.55
2022-09-15T22:18:50.917Z,5.63
2022-09-15T22:20:22.651Z,5.50
2022-09-15T22:21:54.469Z,3.33
2022-09-15T22:23:26.226Z,8.45
2022-09-15T22:24:57.994Z,6.65
2022-09-15T22:26:31.052Z,4.68
2022-09-15T22:28:03.002Z,7.95
2022-09-15T22:29:34.648Z,2.05
2022-09-15T22:31:08.096Z,2.92
2022-09-15T22:32:39.995Z,6.30
2022-09-15T22:34:11.672Z,3.67
2022-09-15T22:35:46.891Z,3.70
2022-09-15T22:37:34.071Z,3.97
2022-09-15T22:39:06.355Z,2.60
2022-09-15T22:40:38.195Z,3.67
2022-09-15T22:42:10.246Z,7.07
2022-09-15T22:43:43.154Z,3.83
2022-09-15T22:45:14.983Z,7.10
2022-09-15T22:46:46.803Z,4.80
2022-09-15T22:48:18.510Z,4.60
2022-09-15T22:49:50.248Z,7.28
2022-09-15T22:51:21.957Z,4.50
2022-09-15T22:52:53.660Z,6.07
2022-09-15T22:54:25.315Z,3.83
2022-09-15T22:56:23.474Z,5.35
2022-09-15T22:57:55.142Z,4.60
2022-09-15T22:59:27.881Z,5.13
2022-09-15T23:01:06.505Z,5.60
2022-09-15T23:02:38.183Z,6.28